createdAt,value
2022-10-06T00:01:18.375Z,8.60
2022-10-06T00:03:45.498Z,8.60
2022-10-06T00:06:17.906Z,8.60
2022-10-06T00:08:45.169Z,8.60
2022-10-06T00:11:12.732Z,8.60
2022-10-06T00:13:42.174Z,8.50
2022-10-06T00:16:09.789Z,8.50
2022-10-06T00:18:36.413Z,8.50
2022-10-06T00:21:04.181Z,8.50
2022-10-06T00:23:32.192Z,8.50
2022-10-06T00:25:58.846Z,8.50
2022-10-06T00:28:26.372Z,8.40
2022-10-06T00:30:53.701Z,8.50
2022-10-06T00:33:20.517Z,8.40
2022-10-06T00:35:47.219Z,8.40
2022-10-06T00:38:14.997Z,8.40
2022-10-06T00:40:48.860Z,8.50
2022-10-06T00:43:34.327Z,8.50
2022-10-06T00:46:01.019Z,8.40
2022-10-06T00:48:29.215Z,8.30
2022-10-06T00:50:58.008Z,8.30
2022-10-06T00:53:27.520Z,8.40
2022-10-06T00:55:54.458Z,8.30
2022-10-06T00:58:21.279Z,8.30
2022-10-06T01:00:55.591Z,8.30
2022-10-06T01:03:25.753Z,8.30
2022-10-06T01:05:57.994Z,8.30
2022-10-06T01:08:24.986Z,8.30
2022-10-06T01:10:51.829Z,8.30
2022-10-06T01:13:20.491Z,8.20
2022-10-06T01:15:56.307Z,8.20
2022-10-06T01:18:24.217Z,8.20
2022-10-06T01:21:02.254Z,8.20
2022-10-06T01:23:30.981Z,8.10
2022-10-06T01:25:59.863Z,8.20
2022-10-06T01:28:27.297Z,8.10
2022-10-06T01:30:54.773Z,8.10
2022-10-06T01:33:29.737Z,8.10
2022-10-06T01:35:56.552Z,8.10
2022-10-06T01:38:23.499Z,8.10
2022-10-06T01:40:51.310Z,8.20
2022-10-06T01:43:20.767Z,8.20
2022-10-06T01:45:57.051Z,8.10
2022-10-06T01:48:24.283Z,8.10
2022-10-06T01:50:50.964Z,8.10
2022-10-06T01:53:18.205Z,8.10
2022-10-06T01:55:44.858Z,8.10
2022-10-06T01:58:11.916Z,8.00
2022-10-06T02:00:39.355Z,8.00
2022-10-06T02:03:07.405Z,8.00
2022-10-06T02:05:34.491Z,7.90
2022-10-06T02:08:02.359Z,7.90
2022-10-06T02:10:30.160Z,7.90
2022-10-06T02:12:57.173Z,7.90
2022-10-06T02:15:24.861Z,7.90
2022-10-06T02:17:51.508Z,7.90
2022-10-06T02:20:21.167Z,7.90
2022-10-06T02:22:47.841Z,7.90
2022-10-06T02:25:14.591Z,7.90
2022-10-06T02:27:41.237Z,8.00
2022-10-06T02:30:08.529Z,8.00
2022-10-06T02:32:36.303Z,8.00
2022-10-06T02:35:03.851Z,7.90
2022-10-06T02:37:33.744Z,7.90
2022-10-06T02:40:03.652Z,7.90
2022-10-06T02:42:31.263Z,7.90
2022-10-06T02:45:00.134Z,7.90
2022-10-06T02:47:30.515Z,7.90
2022-10-06T02:49:57.116Z,7.80
2022-10-06T02:52:23.966Z,7.80
2022-10-06T02:54:51.152Z,7.70
2022-10-06T02:57:17.795Z,7.70
2022-10-06T02:59:44.682Z,7.70
2022-10-06T03:02:11.393Z,7.70
2022-10-06T03:04:40.775Z,7.70
2022-10-06T03:07:10.090Z,7.80
2022-10-06T03:09:36.795Z,7.70
2022-10-06T03:12:03.486Z,7.70
2022-10-06T03:14:30.075Z,7.70
2022-10-06T03:16:57.282Z,7.70
2022-10-06T03:19:23.938Z,7.60
2022-10-06T03:21:50.563Z,7.50
2022-10-06T03:24:17.361Z,7.60
2022-10-06T03:26:45.337Z,7.60
2022-10-06T03:29:12.226Z,7.60
2022-10-06T03:31:41.992Z,7.70
2022-10-06T03:34:08.759Z,7.60
2022-10-06T03:36:35.833Z,7.60
2022-10-06T03:39:03.818Z,7.60
2022-10-06T03:41:31.418Z,7.60
2022-10-06T03:43:58.787Z,7.50
2022-10-06T03:46:26.537Z,7.50
2022-10-06T03:48:53.641Z,7.50
2022-10-06T03:51:21.738Z,7.60
2022-10-06T03:53:50.111Z,7.60
2022-10-06T03:56:23.931Z,7.50
2022-10-06T03:58:51.964Z,7.60
2022-10-06T04:01:22.233Z,7.50
2022-10-06T04:03:53.839Z,7.60
2022-10-06T04:06:20.502Z,7.60
2022-10-06T04:08:48.262Z,7.60
2022-10-06T04:11:16.863Z,7.60
2022-10-06T04:13:44.143Z,7.60
2022-10-06T04:16:10.824Z,7.60
2022-10-06T04:18:38.134Z,7.60
2022-10-06T04:21:04.883Z,7.70
2022-10-06T04:23:32.034Z,7.80
2022-10-06T04:26:02.865Z,7.90
2022-10-06T04:28:30.023Z,8.00
2022-10-06T04:31:00.568Z,8.10
2022-10-06T04:33:27.724Z,8.20
2022-10-06T04:36:04.919Z,8.30
2022-10-06T04:38:35.616Z,8.40
2022-10-06T04:41:06.963Z,8.50
2022-10-06T04:43:33.992Z,8.50
2022-10-06T04:46:06.433Z,8.50
2022-10-06T04:48:44.942Z,8.50
2022-10-06T04:51:13.116Z,8.60
2022-10-06T04:53:39.854Z,8.70
2022-10-06T04:56:08.376Z,8.70
2022-10-06T04:58:36.071Z,8.70
2022-10-06T05:01:03.761Z,8.70
2022-10-06T05:03:30.902Z,8.80
2022-10-06T05:06:07.415Z,8.80
2022-10-06T05:08:34.614Z,8.80
2022-10-06T05:11:05.550Z,8.90
2022-10-06T05:13:32.410Z,9.00
2022-10-06T05:15:59.747Z,9.00
2022-10-06T05:18:27.628Z,9.00
2022-10-06T05:20:57.474Z,9.00
2022-10-06T05:23:25.235Z,9.10
2022-10-06T05:25:53.093Z,9.00
2022-10-06T05:28:20.064Z,9.00
2022-10-06T05:30:57.429Z,9.00
2022-10-06T05:33:24.334Z,9.00
2022-10-06T05:36:11.283Z,9.00
2022-10-06T05:38:38.250Z,9.00
2022-10-06T05:41:10.636Z,8.90
2022-10-06T05:43:37.780Z,8.90
2022-10-06T05:46:05.755Z,9.10
2022-10-06T05:48:32.698Z,9.10
2022-10-06T05:51:00.349Z,9.20
2022-10-06T05:53:27.815Z,9.20
2022-10-06T05:56:08.443Z,9.30
2022-10-06T05:58:36.024Z,9.30
2022-10-06T06:01:09.308Z,9.40
2022-10-06T06:03:36.127Z,9.50
2022-10-06T06:06:04.120Z,9.50
2022-10-06T06:08:31.138Z,9.60
2022-10-06T06:11:04.998Z,9.60
2022-10-06T06:13:31.648Z,9.70
2022-10-06T06:16:01.761Z,9.80
2022-10-06T06:18:29.092Z,9.90
2022-10-06T06:21:00.375Z,10.00
2022-10-06T06:23:37.565Z,10.10
2022-10-06T06:26:15.115Z,10.20
2022-10-06T06:28:45.447Z,10.30
2022-10-06T06:31:19.752Z,10.40
2022-10-06T06:33:47.504Z,10.50
2022-10-06T06:36:17.269Z,10.60
2022-10-06T06:38:46.771Z,10.70
2022-10-06T06:41:14.337Z,10.70
2022-10-06T06:43:41.622Z,10.80
2022-10-06T06:46:08.468Z,11.00
2022-10-06T06:48:37.856Z,11.10
2022-10-06T06:51:05.058Z,11.10
2022-10-06T06:53:31.769Z,11.10
2022-10-06T06:55:58.340Z,11.20
2022-10-06T06:58:25.126Z,11.30
2022-10-06T07:00:51.782Z,11.40
2022-10-06T07:03:32.931Z,11.50
2022-10-06T07:06:09.469Z,11.50
2022-10-06T07:08:37.526Z,11.50
2022-10-06T07:11:16.334Z,11.60
2022-10-06T07:13:43.321Z,11.70
2022-10-06T07:16:29.730Z,11.80
2022-10-06T07:19:15.121Z,11.90
2022-10-06T07:22:00.584Z,12.10
2022-10-06T07:24:45.753Z,12.20
2022-10-06T07:27:12.923Z,12.30
2022-10-06T07:29:39.597Z,12.40
2022-10-06T07:32:06.380Z,12.50
2022-10-06T07:34:33.096Z,12.60
2022-10-06T07:37:04.006Z,12.70
2022-10-06T07:39:33.150Z,12.70
2022-10-06T07:41:59.830Z,12.90
2022-10-06T07:44:26.617Z,12.90
2022-10-06T07:46:53.271Z,13.00
2022-10-06T07:49:19.995Z,13.10
2022-10-06T07:51:46.766Z,13.20
2022-10-06T07:54:13.422Z,13.30
2022-10-06T07:56:40.069Z,13.30
2022-10-06T07:59:06.758Z,13.40
2022-10-06T08:01:33.537Z,13.50
2022-10-06T08:04:00.286Z,13.60
2022-10-06T08:06:26.977Z,13.60
2022-10-06T08:08:53.782Z,13.80
2022-10-06T08:11:22.570Z,13.90
2022-10-06T08:13:50.461Z,14.00
2022-10-06T08:16:21.576Z,14.20
2022-10-06T08:18:49.615Z,14.30
2022-10-06T08:21:17.623Z,14.30
2022-10-06T08:23:45.258Z,14.40
2022-10-06T08:26:12.557Z,14.30
2022-10-06T08:28:39.310Z,14.50
2022-10-06T08:31:06.983Z,14.60
2022-10-06T08:33:35.925Z,14.70
2022-10-06T08:36:04.288Z,14.80
2022-10-06T08:38:31.645Z,14.90
2022-10-06T08:40:58.412Z,15.00
2022-10-06T08:43:26.170Z,15.10
2022-10-06T08:45:59.672Z,15.10
2022-10-06T08:48:29.932Z,15.20
2022-10-06T08:50:58.276Z,15.40
2022-10-06T08:53:30.929Z,15.60
2022-10-06T08:55:57.501Z,15.80
2022-10-06T08:58:31.218Z,15.90
2022-10-06T09:01:19.572Z,16.10
2022-10-06T09:03:48.907Z,16.20
2022-10-06T09:06:15.519Z,16.20
2022-10-06T09:08:50.715Z,16.30
2022-10-06T09:11:35.923Z,16.40
2022-10-06T09:14:09.987Z,16.50
2022-10-06T09:16:39.882Z,16.70
2022-10-06T09:19:33.484Z,16.80
2022-10-06T09:22:02.396Z,16.90
2022-10-06T09:24:39.785Z,17.10
2022-10-06T09:27:20.481Z,17.30
2022-10-06T09:29:48.736Z,17.50
2022-10-06T09:32:16.150Z,17.60
2022-10-06T09:34:53.116Z,17.80
2022-10-06T09:37:19.823Z,18.00
2022-10-06T09:39:51.046Z,17.90
2022-10-06T09:42:17.734Z,17.90
2022-10-06T09:44:53.604Z,18.10
2022-10-06T09:47:24.361Z,18.30
2022-10-06T09:50:11.885Z,18.60
2022-10-06T09:52:38.974Z,18.90
2022-10-06T09:55:12.990Z,19.20
2022-10-06T09:57:47.506Z,19.40
2022-10-06T10:00:30.870Z,19.80
2022-10-06T10:03:02.771Z,20.20
2022-10-06T10:05:30.154Z,20.70
2022-10-06T10:08:09.922Z,20.90
2022-10-06T10:10:37.414Z,21.30
2022-10-06T10:13:16.972Z,21.70
2022-10-06T10:15:58.834Z,21.40
2022-10-06T10:18:26.771Z,21.30
2022-10-06T10:20:58.503Z,21.40
2022-10-06T10:23:30.844Z,21.50
2022-10-06T10:26:08.088Z,21.40
2022-10-06T10:28:53.301Z,21.70
2022-10-06T10:31:39.046Z,22.10
2022-10-06T10:34:25.091Z,23.60
2022-10-06T10:36:54.199Z,24.60
2022-10-06T10:39:26.718Z,26.20
2022-10-06T10:41:55.092Z,27.20
2022-10-06T10:44:24.600Z,26.60
2022-10-06T10:46:55.953Z,25.60
2022-10-06T10:49:26.531Z,24.20
2022-10-06T10:51:55.783Z,23.60
2022-10-06T10:54:25.050Z,23.20
2022-10-06T10:56:53.027Z,22.70
2022-10-06T10:59:23.625Z,22.30
2022-10-06T11:01:53.841Z,22.50
2022-10-06T11:04:20.482Z,22.50
2022-10-06T11:07:03.389Z,22.00
2022-10-06T11:09:38.870Z,21.70
2022-10-06T11:12:14.211Z,21.50
2022-10-06T11:14:43.576Z,21.30
2022-10-06T11:17:27.617Z,21.30
2022-10-06T11:20:08.787Z,21.20
2022-10-06T11:22:35.435Z,21.20
2022-10-06T11:25:02.818Z,21.20
2022-10-06T11:27:36.873Z,21.10
2022-10-06T11:30:06.452Z,21.20
2022-10-06T11:32:39.032Z,21.20
2022-10-06T11:35:26.977Z,21.60
2022-10-06T11:37:57.928Z,22.40
2022-10-06T11:40:38.691Z,23.00
2022-10-06T11:43:12.029Z,22.80
2022-10-06T11:45:48.266Z,22.60
2022-10-06T11:48:28.399Z,22.10
2022-10-06T11:50:55.729Z,21.90
2022-10-06T11:53:34.996Z,21.70
2022-10-06T11:56:16.660Z,21.70
2022-10-06T11:58:52.275Z,21.10
2022-10-06T12:01:27.837Z,21.10
2022-10-06T12:04:09.511Z,21.30
2022-10-06T12:06:42.253Z,21.30
2022-10-06T12:09:24.143Z,21.40
2022-10-06T12:11:51.997Z,21.40
2022-10-06T12:16:00.123Z,21.50
2022-10-06T12:17:22.552Z,21.60
2022-10-06T12:20:02.976Z,21.60
2022-10-06T12:22:33.108Z,21.50
2022-10-06T12:25:13.496Z,21.20
2022-10-06T12:27:40.075Z,21.20
2022-10-06T12:30:25.813Z,21.00
2022-10-06T12:32:56.491Z,20.90
2022-10-06T12:35:26.063Z,20.90
2022-10-06T12:37:54.793Z,20.90
2022-10-06T12:40:37.410Z,20.80
2022-10-06T12:43:19.367Z,20.60
2022-10-06T12:46:01.192Z,20.70
2022-10-06T12:48:31.339Z,20.90
2022-10-06T12:51:02.973Z,20.70
2022-10-06T12:53:32.854Z,20.80
2022-10-06T12:56:02.983Z,21.00
2022-10-06T12:58:30.985Z,21.00
2022-10-06T13:01:02.782Z,20.80
2022-10-06T13:03:30.098Z,20.70
2022-10-06T13:05:58.112Z,20.80
2022-10-06T13:08:31.886Z,20.80
2022-10-06T13:11:31.025Z,20.30
2022-10-06T13:13:59.255Z,20.30
2022-10-06T13:16:28.910Z,20.10
2022-10-06T13:18:56.766Z,20.00
2022-10-06T13:21:24.044Z,19.80
2022-10-06T13:23:52.061Z,19.70
2022-10-06T13:26:26.016Z,20.10
2022-10-06T13:28:53.894Z,20.40
2022-10-06T13:31:31.481Z,20.50
2022-10-06T13:34:11.618Z,20.50
2022-10-06T13:36:39.503Z,20.50
2022-10-06T13:39:07.120Z,20.50
2022-10-06T13:41:41.650Z,20.20
2022-10-06T13:44:28.809Z,19.80
2022-10-06T13:46:58.254Z,20.00
2022-10-06T13:49:30.571Z,20.00
2022-10-06T13:52:00.276Z,19.80
2022-10-06T13:54:32.902Z,19.70
2022-10-06T13:56:59.577Z,19.90
2022-10-06T13:59:29.137Z,19.70
2022-10-06T14:01:56.666Z,19.70
2022-10-06T14:04:23.799Z,19.70
2022-10-06T14:06:55.133Z,19.80
2022-10-06T14:09:25.987Z,19.90
2022-10-06T14:12:06.821Z,19.80
2022-10-06T14:14:33.541Z,20.00
2022-10-06T14:17:00.224Z,19.80
2022-10-06T14:19:31.838Z,19.80
2022-10-06T14:21:58.636Z,19.80
2022-10-06T14:24:28.242Z,19.90
2022-10-06T14:27:00.149Z,19.90
2022-10-06T14:29:26.746Z,20.10
2022-10-06T14:31:53.749Z,19.90
2022-10-06T14:34:21.874Z,19.90
2022-10-06T14:36:53.510Z,19.90
2022-10-06T14:39:20.288Z,20.00
2022-10-06T14:41:47.014Z,19.80
2022-10-06T14:44:15.562Z,19.80
2022-10-06T14:46:43.584Z,19.90
2022-10-06T14:49:11.246Z,19.90
2022-10-06T14:51:38.706Z,19.90
2022-10-06T14:54:06.117Z,19.90
2022-10-06T14:56:33.791Z,19.90
2022-10-06T14:59:02.603Z,20.00
2022-10-06T15:01:29.934Z,19.80
2022-10-06T15:03:57.738Z,19.80
2022-10-06T15:06:43.082Z,19.70
2022-10-06T15:09:09.853Z,19.70
2022-10-06T15:11:36.936Z,19.70
2022-10-06T15:14:04.517Z,19.70
2022-10-06T15:16:32.303Z,19.70
2022-10-06T15:18:59.746Z,19.60
2022-10-06T15:21:27.008Z,19.60
2022-10-06T15:23:57.543Z,19.40
2022-10-06T15:26:43.060Z,19.30
2022-10-06T15:29:09.745Z,19.30
2022-10-06T15:31:37.831Z,19.20
2022-10-06T15:34:05.561Z,19.10
2022-10-06T15:36:33.810Z,18.90
2022-10-06T15:39:04.364Z,18.80
2022-10-06T15:41:31.023Z,18.70
2022-10-06T15:43:57.861Z,18.70
2022-10-06T15:46:27.738Z,18.60
2022-10-06T15:48:55.171Z,18.50
2022-10-06T15:51:22.535Z,18.50
2022-10-06T15:53:50.500Z,18.40
2022-10-06T15:56:17.412Z,18.30
2022-10-06T15:58:44.633Z,18.20
2022-10-06T16:01:29.790Z,18.10
2022-10-06T16:03:58.275Z,18.00
2022-10-06T16:06:49.414Z,17.80
2022-10-06T16:09:17.886Z,17.80
2022-10-06T16:11:45.349Z,17.70
2022-10-06T16:14:11.989Z,17.60
2022-10-06T16:16:42.750Z,17.60
2022-10-06T16:19:10.790Z,17.50
2022-10-06T16:21:37.520Z,17.40
2022-10-06T16:24:04.227Z,17.30
2022-10-06T16:26:31.105Z,17.30
2022-10-06T16:28:57.752Z,17.10
2022-10-06T16:31:24.858Z,17.00
2022-10-06T16:33:51.570Z,16.80
2022-10-06T16:36:25.194Z,16.80
2022-10-06T16:38:53.092Z,16.70
2022-10-06T16:41:20.275Z,16.60
2022-10-06T16:43:47.777Z,16.50
2022-10-06T16:46:17.455Z,16.40
2022-10-06T16:48:45.397Z,16.30
2022-10-06T16:51:13.683Z,16.20
2022-10-06T16:53:47.444Z,16.00
2022-10-06T16:56:16.120Z,15.90
2022-10-06T16:58:43.984Z,15.80
2022-10-06T17:01:11.827Z,15.70
2022-10-06T17:03:39.290Z,15.60
2022-10-06T17:06:06.115Z,15.50
2022-10-06T17:08:32.853Z,15.30
2022-10-06T17:11:10.621Z,15.40
2022-10-06T17:13:38.293Z,15.40
2022-10-06T17:16:06.421Z,15.20
2022-10-06T17:18:33.327Z,15.20
2022-10-06T17:21:01.016Z,15.10
2022-10-06T17:23:30.168Z,15.10
2022-10-06T17:26:17.599Z,15.10
2022-10-06T17:28:46.298Z,15.10
2022-10-06T17:31:13.802Z,15.00
2022-10-06T17:33:41.483Z,15.00
2022-10-06T17:36:08.312Z,14.90
2022-10-06T17:38:36.269Z,14.90
2022-10-06T17:41:07.055Z,14.80
2022-10-06T17:43:37.737Z,14.80
2022-10-06T17:46:05.429Z,14.80
2022-10-06T17:48:33.278Z,14.80
2022-10-06T17:51:00.367Z,14.80
2022-10-06T17:53:27.278Z,14.80
2022-10-06T17:55:55.140Z,14.80
2022-10-06T17:58:22.259Z,14.80
2022-10-06T18:00:49.542Z,14.80
2022-10-06T18:03:16.536Z,14.80
2022-10-06T18:05:43.211Z,14.80
2022-10-06T18:08:10.472Z,14.80
2022-10-06T18:10:59.678Z,14.70
2022-10-06T18:13:26.823Z,14.70
2022-10-06T18:15:53.445Z,14.70
2022-10-06T18:18:25.284Z,14.70
2022-10-06T18:20:52.846Z,14.70
2022-10-06T18:23:19.488Z,14.70
2022-10-06T18:25:46.694Z,14.70
2022-10-06T18:28:13.544Z,14.70
2022-10-06T18:30:40.339Z,14.70
2022-10-06T18:36:14.822Z,14.70
2022-10-06T18:38:43.635Z,14.70
2022-10-06T18:41:13.003Z,14.60
2022-10-06T18:43:39.967Z,14.60
2022-10-06T18:46:26.215Z,14.60
2022-10-06T18:48:55.575Z,14.60
2022-10-06T18:51:25.148Z,14.70
2022-10-06T18:53:54.745Z,14.60
2022-10-06T18:56:22.304Z,14.60
2022-10-06T18:58:49.211Z,14.60
2022-10-06T19:01:16.672Z,14.60
2022-10-06T19:03:43.836Z,14.60
2022-10-06T19:06:10.467Z,14.60
2022-10-06T19:08:37.133Z,14.50
2022-10-06T19:11:23.102Z,14.50
2022-10-06T19:13:52.066Z,14.50
2022-10-06T19:16:22.137Z,14.40
2022-10-06T19:18:49.196Z,14.40
2022-10-06T19:21:15.861Z,14.40
2022-10-06T19:23:42.602Z,14.40
2022-10-06T19:26:11.026Z,14.40
2022-10-06T19:28:37.841Z,14.40
2022-10-06T19:31:06.116Z,14.40
2022-10-06T19:33:32.875Z,14.40
2022-10-06T19:36:00.483Z,14.40
2022-10-06T19:38:27.625Z,14.40
2022-10-06T19:40:54.354Z,14.40
2022-10-06T19:43:21.151Z,14.30
2022-10-06T19:46:05.817Z,14.30
2022-10-06T19:48:32.493Z,14.30
2022-10-06T19:50:59.325Z,14.30
2022-10-06T19:53:25.962Z,14.30
2022-10-06T19:55:59.967Z,14.40
2022-10-06T19:58:26.610Z,14.30
2022-10-06T20:00:54.784Z,14.30
2022-10-06T20:03:21.419Z,14.30
2022-10-06T20:05:48.149Z,14.30
2022-10-06T20:08:14.802Z,14.20
2022-10-06T20:10:41.401Z,14.20
2022-10-06T20:13:08.136Z,14.20
2022-10-06T20:15:34.979Z,14.20
2022-10-06T20:18:02.085Z,14.20
2022-10-06T20:20:28.807Z,14.20
2022-10-06T20:22:55.468Z,14.10
2022-10-06T20:25:22.176Z,14.10
2022-10-06T20:27:50.214Z,14.00
2022-10-06T20:30:16.990Z,13.90
2022-10-06T20:32:43.617Z,13.80
2022-10-06T20:35:10.364Z,13.80
2022-10-06T20:37:38.354Z,13.70
2022-10-06T20:40:23.985Z,13.60
2022-10-06T20:42:54.750Z,13.50
2022-10-06T20:45:21.603Z,13.40
2022-10-06T20:47:48.225Z,13.30
2022-10-06T20:50:14.971Z,13.20
2022-10-06T20:52:41.653Z,13.10
2022-10-06T20:55:08.686Z,13.10
2022-10-06T20:57:35.306Z,12.90
2022-10-06T21:00:02.017Z,12.80
2022-10-06T21:02:28.665Z,12.70
2022-10-06T21:04:57.377Z,12.70
2022-10-06T21:07:24.032Z,12.60
2022-10-06T21:09:52.338Z,12.50
2022-10-06T21:12:20.164Z,12.40
2022-10-06T21:14:47.763Z,12.40
2022-10-06T21:17:14.401Z,12.40
2022-10-06T21:19:41.102Z,12.30
2022-10-06T21:22:07.804Z,12.30
2022-10-06T21:24:34.479Z,12.40
2022-10-06T21:27:01.065Z,12.30
2022-10-06T21:29:27.709Z,12.30
2022-10-06T21:31:55.369Z,12.40
2022-10-06T21:34:21.985Z,12.30
2022-10-06T21:36:48.849Z,12.30
2022-10-06T21:39:15.486Z,12.30
2022-10-06T21:41:42.259Z,12.30
2022-10-06T21:44:10.200Z,12.30
2022-10-06T21:46:38.205Z,12.30
2022-10-06T21:49:06.646Z,12.40
2022-10-06T21:51:33.759Z,12.30
2022-10-06T21:54:01.153Z,12.40
2022-10-06T21:56:29.078Z,12.40
2022-10-06T21:58:56.153Z,12.40
2022-10-06T22:01:24.343Z,12.50
2022-10-06T22:03:51.032Z,12.50
2022-10-06T22:06:19.515Z,12.60
2022-10-06T22:08:46.660Z,12.60
2022-10-06T22:11:20.633Z,12.60
2022-10-06T22:13:48.798Z,12.70
2022-10-06T22:16:17.218Z,12.60
2022-10-06T22:18:43.882Z,12.60
2022-10-06T22:21:13.464Z,12.60
2022-10-06T22:23:40.636Z,12.70
2022-10-06T22:26:07.811Z,12.70
2022-10-06T22:28:34.728Z,12.70
2022-10-06T22:31:05.963Z,12.70
2022-10-06T22:33:32.749Z,12.70
2022-10-06T22:35:59.710Z,12.80
2022-10-06T22:38:26.846Z,12.70
2022-10-06T22:40:53.534Z,12.70
2022-10-06T22:43:20.178Z,12.70
2022-10-06T22:45:46.810Z,12.70
2022-10-06T22:48:13.519Z,12.70
2022-10-06T22:50:40.118Z,12.70
2022-10-06T22:53:06.795Z,12.70
2022-10-06T22:55:33.606Z,12.70
2022-10-06T22:58:00.179Z,12.70
2022-10-06T23:00:27.689Z,12.70
2022-10-06T23:02:54.944Z,12.70
2022-10-06T23:05:21.714Z,12.70
2022-10-06T23:07:50.497Z,12.70
2022-10-06T23:10:18.377Z,12.70
2022-10-06T23:12:47.207Z,12.70
2022-10-06T23:15:14.561Z,12.70
2022-10-06T23:17:41.941Z,12.70
2022-10-06T23:20:09.177Z,12.70
2022-10-06T23:22:35.801Z,12.70
2022-10-06T23:25:02.449Z,12.70
2022-10-06T23:27:29.125Z,12.70
2022-10-06T23:29:55.720Z,12.70
2022-10-06T23:32:22.312Z,12.70
2022-10-06T23:34:48.938Z,12.60
2022-10-06T23:37:15.545Z,12.60
2022-10-06T23:39:42.363Z,12.60
2022-10-06T23:42:09.715Z,12.60
2022-10-06T23:44:36.680Z,12.60
2022-10-06T23:47:03.409Z,12.60
2022-10-06T23:49:30.296Z,12.60
2022-10-06T23:51:56.909Z,12.60
2022-10-06T23:54:23.487Z,12.60
2022-10-06T23:56:51.363Z,12.70
2022-10-06T23:59:17.992Z,12.70
